Time;durP1;ratioP1;P1;durP2;ratioP2;P2;SDS_P1;SDS_P2;PMS_P1;PMS_P2;Temp;Humidity;BMP_temperature;BMP_pressure;BME280_temperature;BME280_humidity;BME280_pressure;Samples;Min_cycle;Max_cycle;Signal;HPM_P1;HPM_P2
2022/12/11 00:01:59;;;;;;;17.47;9.70;;;;;;;10.85;100.00;92419.91;5100622;22;20228;-58
2022/12/11 00:04:25;;;;;;;20.00;9.80;;;;;;;11.02;100.00;92419.59;5092932;28;20265;-58
2022/12/11 00:06:51;;;;;;;17.07;9.73;;;;;;;10.85;100.00;92409.75;5093123;28;20220;-58
2022/12/11 00:09:17;;;;;;;17.07;9.60;;;;;;;10.85;100.00;92424.19;5092896;28;20220;-59
2022/12/11 00:11:43;;;;;;;13.30;8.93;;;;;;;10.85;100.00;92431.81;5093438;28;20658;-58
2022/12/11 00:14:08;;;;;;;13.50;8.60;;;;;;;10.88;100.00;92408.59;5092807;28;20310;-60
2022/12/11 00:16:34;;;;;;;14.20;9.47;;;;;;;10.77;100.00;92384.47;5093420;28;20188;-59
2022/12/11 00:18:59;;;;;;;15.07;8.87;;;;;;;10.87;100.00;92428.13;5093019;28;20184;-60
2022/12/11 00:21:25;;;;;;;17.67;10.67;;;;;;;10.83;100.00;92398.97;5093123;28;20180;-58
2022/12/11 00:23:50;;;;;;;17.37;10.57;;;;;;;10.79;100.00;92391.91;5092579;28;20180;-60
2022/12/11 00:26:15;;;;;;;17.90;10.40;;;;;;;10.77;100.00;92399.72;5074525;28;20184;-58
2022/12/11 00:28:42;;;;;;;16.63;9.27;;;;;;;11.09;100.00;92392.47;5074544;28;20192;-60
2022/12/11 00:31:12;;;;;;;15.43;9.70;;;;;;;11.18;100.00;92397.22;5092413;28;20778;-59
2022/12/11 00:33:37;;;;;;;20.57;10.83;;;;;;;11.22;100.00;92398.41;5092659;28;20283;-59
2022/12/11 00:36:03;;;;;;;17.57;9.30;;;;;;;11.14;100.00;92385.84;5092865;28;20300;-59
2022/12/11 00:38:28;;;;;;;17.33;8.57;;;;;;;11.18;100.00;92402.28;5092576;28;20185;-60
2022/12/11 00:40:58;;;;;;;17.90;10.40;;;;;;;10.98;100.00;92360.75;5092611;28;20204;-58
2022/12/11 00:43:24;;;;;;;17.60;9.83;;;;;;;11.10;100.00;92429.63;5092515;28;20692;-57
2022/12/11 00:45:49;;;;;;;16.37;10.00;;;;;;;10.84;100.00;92356.56;5092527;28;20250;-58
2022/12/11 00:48:14;;;;;;;16.57;10.20;;;;;;;10.93;100.00;92406.25;5092482;28;20192;-58
2022/12/11 00:50:40;;;;;;;18.17;10.77;;;;;;;10.97;100.00;92403.16;5092111;28;20220;-61
2022/12/11 00:53:06;;;;;;;17.80;10.27;;;;;;;10.80;100.00;92381.56;5073983;28;20676;-60
2022/12/11 00:55:36;;;;;;;19.37;10.07;;;;;;;10.90;100.00;92376.94;5092143;28;20591;-59
2022/12/11 00:58:02;;;;;;;16.37;9.87;;;;;;;10.87;100.00;92412.88;5092214;28;20219;-57
2022/12/11 01:00:28;;;;;;;19.23;10.83;;;;;;;10.91;100.00;92386.13;5092333;28;20208;-59
2022/12/11 01:02:54;;;;;;;17.47;8.87;;;;;;;10.79;100.00;92384.28;5092044;28;20254;-59
2022/12/11 01:05:19;;;;;;;14.27;8.50;;;;;;;10.98;100.00;92386.16;5074051;28;20593;-60
2022/12/11 01:07:44;;;;;;;15.63;9.10;;;;;;;11.15;100.00;92402.66;5092018;28;20196;-59
2022/12/11 01:10:24;;;;;;;15.60;9.10;;;;;;;11.23;100.00;92410.13;5073834;28;20216;-59
2022/12/11 01:12:56;;;;;;;14.87;8.53;;;;;;;11.38;100.00;92393.00;5073786;28;20675;-58
2022/12/11 01:15:25;;;;;;;12.93;7.33;;;;;;;11.38;100.00;92420.19;5091714;28;20565;-61
2022/12/11 01:17:51;;;;;;;20.57;10.00;;;;;;;11.26;100.00;92414.06;5091799;28;20283;-61
2022/12/11 01:20:18;;;;;;;19.80;9.87;;;;;;;11.05;100.00;92381.88;5091165;28;20299;-60
2022/12/11 01:22:44;;;;;;;14.63;9.50;;;;;;;11.02;100.00;92407.69;5073760;28;20185;-60
2022/12/11 01:25:09;;;;;;;16.37;10.53;;;;;;;11.11;100.00;92419.25;5091791;28;20357;-59
2022/12/11 01:27:35;;;;;;;21.83;10.67;;;;;;;10.98;100.00;92442.88;5091953;28;20571;-58
2022/12/11 01:30:01;;;;;;;20.07;11.20;;;;;;;10.91;100.00;92413.28;5091478;28;20212;-58
2022/12/11 01:32:27;;;;;;;19.67;11.87;;;;;;;10.98;100.00;92411.56;5091869;28;20737;-58
2022/12/11 01:34:53;;;;;;;17.87;11.03;;;;;;;11.02;100.00;92427.22;5091638;28;20204;-60
2022/12/11 01:37:25;;;;;;;17.97;10.90;;;;;;;11.10;100.00;92399.13;5091716;28;20249;-60
2022/12/11 01:39:51;;;;;;;16.87;9.97;;;;;;;11.04;100.00;92382.88;5091481;28;20646;-60
2022/12/11 01:42:18;;;;;;;23.10;9.53;;;;;;;11.07;100.00;92385.03;5091674;28;20218;-60
2022/12/11 01:44:43;;;;;;;18.23;10.30;;;;;;;11.08;100.00;92371.34;5091533;28;20262;-59
2022/12/11 01:47:10;;;;;;;18.33;9.80;;;;;;;11.17;100.00;92370.19;5091662;28;20200;-58
2022/12/11 01:49:38;;;;;;;14.70;9.50;;;;;;;11.19;100.00;92364.94;5091525;28;20747;-59
2022/12/11 01:52:18;;;;;;;13.30;8.67;;;;;;;11.21;100.00;92396.81;5091903;28;20192;-57
2022/12/11 01:54:44;;;;;;;14.20;8.30;;;;;;;11.22;100.00;92372.19;5091482;28;20207;-59
2022/12/11 01:57:12;;;;;;;13.73;7.43;;;;;;;11.25;100.00;92339.53;5091520;28;20188;-59
2022/12/11 01:59:41;;;;;;;12.90;7.40;;;;;;;11.20;100.00;92389.38;5073206;28;20214;-58
2022/12/11 02:02:30;;;;;;;11.57;6.47;;;;;;;11.22;100.00;92436.53;5090789;28;20565;-59
2022/12/11 02:04:56;;;;;;;13.90;6.57;;;;;;;11.30;100.00;92425.41;5090866;28;20212;-62
2022/12/11 02:07:22;;;;;;;9.93;6.27;;;;;;;11.29;100.00;92409.38;5091477;28;20203;-59
2022/12/11 02:09:48;;;;;;;16.33;7.40;;;;;;;11.26;100.00;92389.41;5091408;28;20237;-59
2022/12/11 02:12:17;;;;;;;9.53;6.13;;;;;;;11.04;100.00;92369.38;5091537;28;20188;-60
2022/12/11 02:14:58;;;;;;;11.23;6.80;;;;;;;11.07;100.00;92364.69;5091132;28;20532;-59
2022/12/11 02:17:45;;;;;;;10.30;5.87;;;;;;;11.28;100.00;92384.94;5091328;28;20195;-60
2022/12/11 02:20:22;;;;;;;10.70;5.50;;;;;;;11.32;100.00;92403.91;5091094;28;20210;-56
2022/12/11 02:23:03;;;;;;;9.23;5.93;;;;;;;11.35;100.00;92347.56;5091279;28;20261;-58
2022/12/11 02:25:53;;;;;;;9.70;6.60;;;;;;;11.19;100.00;92362.41;5090482;28;20208;-59
2022/12/11 02:28:33;;;;;;;9.23;5.00;;;;;;;11.25;100.00;92357.31;5090894;28;20180;-59
2022/12/11 02:31:31;;;;;;;9.53;4.70;;;;;;;11.36;100.00;92323.72;5098464;22;20228;-59
2022/12/11 02:34:06;;;;;;;8.53;4.73;;;;;;;11.51;100.00;92315.94;5059565;28;20322;-58
2022/12/11 02:36:44;;;;;;;6.27;3.47;;;;;;;11.57;100.00;92308.28;5090943;28;20176;-59
2022/12/11 02:39:12;;;;;;;7.80;3.60;;;;;;;11.61;100.00;92313.81;5090795;28;20207;-58
2022/12/11 02:41:41;;;;;;;4.87;3.30;;;;;;;11.63;100.00;92329.66;5090911;28;20226;-59
2022/12/11 02:44:11;;;;;;;5.53;3.37;;;;;;;11.79;100.00;92322.47;5090816;28;20207;-60
2022/12/11 02:46:38;;;;;;;7.17;2.97;;;;;;;11.87;100.00;92326.59;5090986;28;20677;-60
2022/12/11 02:49:07;;;;;;;5.30;2.80;;;;;;;11.99;100.00;92334.41;5090778;28;20208;-59
2022/12/11 02:51:38;;;;;;;7.70;3.33;;;;;;;12.09;100.00;92345.00;5090721;28;20278;-58
2022/12/11 02:54:07;;;;;;;6.23;2.40;;;;;;;12.22;100.00;92357.75;5090496;28;20568;-58
2022/12/11 02:56:40;;;;;;;5.03;2.90;;;;;;;12.10;100.00;92326.97;5091001;28;20180;-60
2022/12/11 02:59:11;;;;;;;2.70;1.97;;;;;;;12.29;100.00;92371.25;5090797;28;20208;-58
2022/12/11 03:01:37;;;;;;;3.00;2.30;;;;;;;12.28;100.00;92334.03;5090435;28;20246;-58
2022/12/11 03:04:02;;;;;;;3.30;2.00;;;;;;;12.29;100.00;92345.78;5090466;28;20181;-60
2022/12/11 03:06:35;;;;;;;5.73;3.20;;;;;;;12.30;100.00;92339.72;5090718;28;20219;-60
2022/12/11 03:09:01;;;;;;;3.10;2.30;;;;;;;12.22;100.00;92350.09;5090494;28;20185;-59
2022/12/11 03:11:27;;;;;;;5.80;2.73;;;;;;;12.26;100.00;92331.66;5090448;28;20246;-60
2022/12/11 03:13:53;;;;;;;5.07;2.50;;;;;;;12.30;100.00;92353.22;5055502;28;20654;-58
2022/12/11 03:16:38;;;;;;;3.50;2.60;;;;;;;12.35;100.00;92335.59;5093856;28;20184;-58
2022/12/11 03:19:10;;;;;;;3.77;2.17;;;;;;;12.40;100.00;92332.47;5093823;28;20179;-58
2022/12/11 03:21:51;;;;;;;2.97;1.93;;;;;;;12.51;100.00;92324.22;5093912;28;20184;-58
2022/12/11 03:24:29;;;;;;;3.30;1.77;;;;;;;12.58;100.00;92345.38;5093774;28;20578;-59
2022/12/11 03:27:01;;;;;;;8.80;1.70;;;;;;;12.58;100.00;92341.03;5093848;28;20258;-59
2022/12/11 03:29:44;;;;;;;2.10;1.50;;;;;;;12.60;100.00;92338.31;5093667;28;20226;-60
2022/12/11 03:32:14;;;;;;;1.97;1.37;;;;;;;12.73;100.00;92406.31;5093772;28;20184;-59
2022/12/11 03:35:05;;;;;;;2.83;1.60;;;;;;;12.77;100.00;92359.84;5093725;28;20208;-58
2022/12/11 03:37:36;;;;;;;1.60;1.27;;;;;;;12.93;100.00;92420.59;5062083;28;20200;-58
2022/12/11 03:40:09;;;;;;;2.57;1.10;;;;;;;13.10;100.00;92443.97;5093481;28;20273;-58
2022/12/11 03:42:36;;;;;;;0.90;0.90;;;;;;;13.52;100.00;92514.94;5093679;28;20579;-60
2022/12/11 03:45:04;;;;;;;1.07;0.80;;;;;;;13.59;100.00;92500.41;5075228;28;20223;-61
2022/12/11 03:47:31;;;;;;;2.40;1.10;;;;;;;13.51;100.00;92454.66;5093399;28;20187;-59
2022/12/11 03:49:58;;;;;;;0.90;0.80;;;;;;;13.63;100.00;92483.69;5093501;28;20645;-59
2022/12/11 03:52:26;;;;;;;1.80;1.00;;;;;;;13.75;100.00;92486.38;5075011;28;20211;-60
2022/12/11 03:54:55;;;;;;;1.10;1.00;;;;;;;13.68;100.00;92490.72;5093319;28;20302;-58
2022/12/11 03:57:25;;;;;;;1.37;0.83;;;;;;;13.88;100.00;92520.31;5093262;28;20636;-57
2022/12/11 03:59:51;;;;;;;1.33;0.73;;;;;;;13.83;100.00;92498.94;5074915;28;20208;-58
2022/12/11 04:02:16;;;;;;;1.80;1.10;;;;;;;13.83;100.00;92463.19;5093083;28;20263;-59
2022/12/11 04:04:42;;;;;;;1.80;1.00;;;;;;;13.77;100.00;92477.56;5092952;28;20242;-59
2022/12/11 04:07:08;;;;;;;0.60;0.60;;;;;;;13.74;100.00;92518.00;5093414;28;20691;-58
2022/12/11 04:09:34;;;;;;;1.60;0.77;;;;;;;13.59;100.00;92369.41;5093020;28;20361;-56
2022/12/11 04:12:00;;;;;;;0.77;0.67;;;;;;;13.40;100.00;92406.78;5093160;28;20184;-59
2022/12/11 04:17:09;;;;;;;1.13;1.00;;;;;;;13.40;100.00;92450.97;5093402;28;20583;-57
2022/12/11 04:25:05;;;;;;;1.50;1.23;;;;;;;13.43;100.00;92411.50;5092595;28;20584;-61
2022/12/11 04:27:49;;;;;;;2.17;1.00;;;;;;;13.44;100.00;92443.69;5092792;28;20266;-58
2022/12/11 04:30:23;;;;;;;1.35;1.00;;;;;;;13.52;100.00;92468.97;5092947;28;20211;-59
2022/12/11 04:32:49;;;;;;;3.47;1.20;;;;;;;13.56;100.00;92470.16;5092509;28;20684;-59
2022/12/11 04:35:15;;;;;;;3.20;1.00;;;;;;;13.51;100.00;92459.78;5093035;28;20211;-59
2022/12/11 04:37:41;;;;;;;2.33;1.63;;;;;;;13.61;100.00;92480.56;5092543;28;20188;-58
2022/12/11 04:40:11;;;;;;;1.73;0.80;;;;;;;13.55;100.00;92475.47;5092618;28;20212;-58
2022/12/11 04:42:36;;;;;;;2.77;1.00;;;;;;;13.61;100.00;92479.75;5074645;28;20188;-58
2022/12/11 04:45:03;;;;;;;2.70;0.97;;;;;;;13.63;100.00;92499.00;5074398;28;20299;-60
2022/12/11 04:47:29;;;;;;;2.37;1.00;;;;;;;13.77;100.00;92509.97;5092726;28;20676;-59
2022/12/11 04:49:54;;;;;;;1.20;1.00;;;;;;;13.79;100.00;92533.53;5092462;28;20212;-58
2022/12/11 04:52:20;;;;;;;1.07;0.87;;;;;;;13.78;100.00;92535.28;5092455;28;20215;-56
2022/12/11 04:54:45;;;;;;;2.00;1.60;;;;;;;13.93;100.00;92566.50;5092435;28;20691;-56
2022/12/11 04:57:11;;;;;;;3.97;1.60;;;;;;;13.93;100.00;92573.34;5092124;28;20291;-59
2022/12/11 04:59:37;;;;;;;1.25;0.75;;;;;;;13.99;100.00;92608.31;5092315;28;20211;-58
2022/12/11 05:02:03;;;;;;;1.10;0.90;;;;;;;14.06;100.00;92637.16;5092235;28;20182;-58
2022/12/11 05:04:33;;;;;;;1.15;0.60;;;;;;;14.15;100.00;92636.78;5073966;28;20212;-56
2022/12/11 05:06:59;;;;;;;3.03;0.60;;;;;;;14.24;100.00;92665.47;5092380;28;20704;-59
2022/12/11 05:09:25;;;;;;;2.00;0.60;;;;;;;14.80;100.00;92773.91;5091774;28;20215;-56
2022/12/11 05:11:50;;;;;;;1.00;0.47;;;;;;;14.74;100.00;92767.03;5074251;28;20184;-57
2022/12/11 05:14:16;;;;;;;1.33;0.40;;;;;;;14.84;100.00;92780.19;5091877;28;20212;-58
2022/12/11 05:16:41;;;;;;;1.50;0.43;;;;;;;14.90;100.00;92776.81;5091964;28;20656;-57
2022/12/11 05:19:07;;;;;;;1.60;0.50;;;;;;;15.08;100.00;92845.25;5091921;28;20618;-57
2022/12/11 05:21:32;;;;;;;2.20;0.70;;;;;;;15.30;100.00;92845.78;5091973;28;20176;-56
2022/12/11 05:23:58;;;;;;;1.63;0.40;;;;;;;15.40;100.00;92846.94;5091805;28;20565;-56
2022/12/11 05:26:23;;;;;;;0.70;0.40;;;;;;;15.33;100.00;92805.19;5091824;28;20186;-56
2022/12/11 05:28:53;;;;;;;1.05;0.50;;;;;;;15.26;100.00;92780.59;5091730;28;20743;-57
2022/12/11 05:31:23;;;;;;;1.73;0.40;;;;;;;15.39;100.00;92829.22;5091670;28;20245;-57
2022/12/11 05:33:50;;;;;;;1.05;0.50;;;;;;;15.55;99.00;92860.31;5091438;28;20184;-58
2022/12/11 05:36:24;;;;;;;2.63;0.52;;;;;;;15.61;98.63;92856.13;5091668;28;20659;-58
2022/12/11 05:38:51;;;;;;;0.68;0.40;;;;;;;15.51;96.35;92833.53;5090835;28;20675;-58
2022/12/11 05:41:19;;;;;;;0.40;0.40;;;;;;;15.38;82.37;92784.09;5091426;28;20222;-58
2022/12/11 05:43:44;;;;;;;0.70;0.50;;;;;;;15.35;81.56;92771.72;5091601;28;20183;-58
2022/12/11 05:46:16;;;;;;;0.75;0.50;;;;;;;15.36;78.90;92763.81;5091528;28;20208;-56
2022/12/11 05:48:45;;;;;;;1.65;0.77;;;;;;;15.45;78.96;92746.50;5091482;28;20633;-56
2022/12/11 05:51:11;;;;;;;1.23;0.40;;;;;;;15.42;77.90;92770.72;5091145;28;20249;-56
2022/12/11 05:53:37;;;;;;;1.13;0.50;;;;;;;15.47;78.07;92765.00;5091303;28;20176;-57
2022/12/11 05:56:05;;;;;;;0.60;0.60;;;;;;;15.48;76.94;92784.47;5091157;28;20235;-57
2022/12/11 05:58:31;;;;;;;0.80;0.40;;;;;;;15.53;75.29;92810.28;5091322;28;20665;-57
2022/12/11 06:00:57;;;;;;;1.52;0.60;;;;;;;15.48;76.82;92749.41;5091905;28;20224;-57
2022/12/11 06:03:23;;;;;;;2.90;0.68;;;;;;;15.44;79.35;92686.00;5091201;28;20568;-59
2022/12/11 06:05:48;;;;;;;1.65;1.08;;;;;;;15.35;79.06;92712.84;5091308;28;20586;-58
2022/12/11 06:08:14;;;;;;;3.38;1.35;;;;;;;15.25;80.63;92686.91;5091048;28;20191;-56
2022/12/11 06:10:49;;;;;;;0.60;0.60;;;;;;;15.25;79.48;92720.94;5091265;28;20259;-56
2022/12/11 06:13:15;;;;;;;2.97;0.60;;;;;;;15.45;78.02;92754.16;5091188;28;20276;-58
2022/12/11 06:15:41;;;;;;;2.83;0.90;;;;;;;15.46;77.73;92732.69;5090977;28;20208;-59
2022/12/11 06:18:07;;;;;;;0.45;0.35;;;;;;;15.44;78.11;92714.97;5090793;28;20198;-58
2022/12/11 06:20:33;;;;;;;0.73;0.57;;;;;;;15.37;78.43;92741.56;5090735;28;20770;-57
2022/12/11 06:23:00;;;;;;;3.60;2.38;;;;;;;15.33;78.53;92717.38;5091032;28;20231;-58
2022/12/11 06:25:26;;;;;;;2.25;1.20;;;;;;;15.26;78.88;92737.09;5091098;28;20250;-57
2022/12/11 06:27:52;;;;;;;1.33;0.77;;;;;;;15.32;78.55;92744.75;5072737;28;20249;-58
2022/12/11 06:30:17;;;;;;;0.98;0.70;;;;;;;15.29;79.52;92719.53;5091171;28;20223;-56
2022/12/11 06:32:43;;;;;;;2.28;1.00;;;;;;;15.35;79.42;92733.31;5091054;28;20239;-58
2022/12/11 06:35:09;;;;;;;0.50;0.50;;;;;;;15.38;77.85;92789.22;5091070;28;20215;-56
2022/12/11 06:37:36;;;;;;;1.88;0.90;;;;;;;15.56;77.05;92812.41;5090641;28;20287;-57
2022/12/11 06:40:03;;;;;;;0.85;0.63;;;;;;;15.65;75.76;92844.50;5100673;22;20224;-56
2022/12/11 06:42:30;;;;;;;0.65;0.40;;;;;;;15.85;70.72;92922.03;5090785;28;20191;-58
2022/12/11 06:44:58;;;;;;;1.02;0.45;;;;;;;16.01;69.02;92924.13;5090681;28;20294;-55
2022/12/11 06:47:27;;;;;;;1.95;0.65;;;;;;;16.18;70.36;92896.25;5090679;28;20642;-58
2022/12/11 06:49:53;;;;;;;0.88;0.40;;;;;;;16.12;72.14;92853.50;5093779;28;20239;-57
2022/12/11 06:52:20;;;;;;;0.30;0.30;;;;;;;16.09;71.82;92879.53;5094244;28;20184;-60
2022/12/11 06:54:46;;;;;;;0.80;0.50;;;;;;;16.04;72.79;92849.38;5094446;28;20329;-59
2022/12/11 06:57:11;;;;;;;1.38;0.40;;;;;;;16.11;71.63;92885.22;5094213;28;20244;-59
2022/12/11 06:59:37;;;;;;;0.63;0.40;;;;;;;16.12;71.99;92884.25;5094258;28;20208;-56
2022/12/11 07:02:03;;;;;;;2.15;0.70;;;;;;;16.16;73.15;92845.16;5094037;28;20208;-60
2022/12/11 07:04:29;;;;;;;1.10;0.47;;;;;;;16.08;74.25;92821.56;5094098;28;20216;-58
2022/12/11 07:06:56;;;;;;;0.60;0.60;;;;;;;16.15;73.89;92841.03;5094125;28;20188;-57
2022/12/11 07:09:22;;;;;;;1.00;0.50;;;;;;;16.16;74.69;92821.31;5093818;28;20299;-58
2022/12/11 07:11:54;;;;;;;0.57;0.57;;;;;;;16.13;74.88;92803.78;5093943;28;20257;-58
2022/12/11 07:14:20;;;;;;;1.85;0.88;;;;;;;16.02;77.07;92742.94;5093990;28;20220;-57
2022/12/11 07:16:45;;;;;;;0.98;0.50;;;;;;;16.13;76.50;92783.28;5093981;28;20652;-58
2022/12/11 07:19:11;;;;;;;0.85;0.50;;;;;;;16.15;76.32;92782.06;5093913;28;20212;-57
2022/12/11 07:21:36;;;;;;;1.77;0.60;;;;;;;16.12;77.22;92754.28;5093735;28;20176;-55
2022/12/11 07:24:02;;;;;;;1.50;0.90;;;;;;;16.05;78.28;92737.38;5093629;28;20194;-56
2022/12/11 07:26:28;;;;;;;1.05;0.40;;;;;;;16.09;77.30;92788.03;5093883;28;20548;-60
2022/12/11 07:28:57;;;;;;;1.05;0.98;;;;;;;16.03;77.48;92778.63;5093294;28;20192;-59
2022/12/11 07:31:24;;;;;;;1.70;0.85;;;;;;;16.02;76.98;92771.91;5093948;28;20180;-59
2022/12/11 07:34:03;;;;;;;1.58;0.50;;;;;;;15.85;76.86;92774.22;5093378;28;20180;-57
2022/12/11 07:36:29;;;;;;;2.92;0.63;;;;;;;15.97;77.88;92771.75;5093786;28;20672;-58
2022/12/11 07:38:55;;;;;;;3.35;0.60;;;;;;;15.94;78.53;92752.44;5093270;28;20184;-58
2022/12/11 07:41:22;;;;;;;2.33;0.60;;;;;;;15.90;78.19;92776.13;5093620;28;20191;-59
2022/12/11 07:43:48;;;;;;;2.80;0.90;;;;;;;15.93;78.49;92773.16;5093213;28;20271;-58
2022/12/11 07:46:19;;;;;;;1.15;0.70;;;;;;;15.87;78.29;92785.03;5101190;22;20304;-57
2022/12/11 07:48:46;;;;;;;4.07;0.73;;;;;;;15.94;77.42;92808.03;5093420;28;20267;-57
2022/12/11 07:51:15;;;;;;;0.82;0.65;;;;;;;15.94;74.71;92867.78;5072879;28;20212;-59
2022/12/11 07:53:46;;;;;;;1.27;0.50;;;;;;;16.07;74.18;92877.19;5072944;28;20176;-55
2022/12/11 07:56:12;;;;;;;1.65;0.70;;;;;;;16.11;74.25;92880.09;5073519;28;20718;-56
2022/12/11 07:58:38;;;;;;;0.80;0.50;;;;;;;16.15;74.58;92876.94;5072858;28;20630;-55
2022/12/11 08:01:15;;;;;;;2.47;0.63;;;;;;;16.11;74.92;92847.56;5072033;28;20693;-58
2022/12/11 08:03:41;;;;;;;1.27;0.93;;;;;;;16.12;75.47;92845.81;5072605;28;20187;-61
2022/12/11 08:06:08;;;;;;;0.88;0.63;;;;;;;16.17;75.76;92859.56;5072552;28;20281;-60
2022/12/11 08:08:33;;;;;;;1.30;0.68;;;;;;;16.11;75.51;92849.34;5055219;28;20279;-57
2022/12/11 08:11:03;;;;;;;0.60;0.60;;;;;;;16.18;74.84;92873.94;5072609;28;20304;-57
2022/12/11 08:13:29;;;;;;;1.40;0.65;;;;;;;16.16;76.65;92831.56;5054618;28;20220;-57
2022/12/11 08:15:55;;;;;;;1.42;0.77;;;;;;;16.12;77.51;92823.50;5072330;28;20710;-56
2022/12/11 08:18:20;;;;;;;2.25;0.77;;;;;;;16.06;77.24;92824.31;5097963;22;20296;-56
2022/12/11 08:20:46;;;;;;;1.13;0.70;;;;;;;16.00;78.33;92779.03;5074522;28;20219;-56
2022/12/11 08:23:11;;;;;;;1.17;0.70;;;;;;;16.04;77.75;92802.47;5092745;28;20189;-56
2022/12/11 08:25:36;;;;;;;3.08;1.00;;;;;;;16.02;79.73;92756.53;5092931;28;20208;-56
2022/12/11 08:28:02;;;;;;;1.80;1.02;;;;;;;15.87;80.78;92735.56;5093311;28;20192;-57
2022/12/11 08:30:28;;;;;;;1.67;0.90;;;;;;;15.85;80.42;92740.91;5092913;28;20256;-55
2022/12/11 08:32:53;;;;;;;1.55;0.63;;;;;;;15.93;79.03;92784.22;5093389;28;20200;-55
2022/12/11 08:35:18;;;;;;;1.02;0.60;;;;;;;15.95;79.05;92764.28;5093105;28;20247;-59
2022/12/11 08:37:44;;;;;;;1.65;0.68;;;;;;;16.02;78.47;92782.16;5074764;28;20196;-55
2022/12/11 08:40:11;;;;;;;1.77;0.70;;;;;;;15.99;79.10;92769.78;5092433;28;20196;-58
2022/12/11 08:42:37;;;;;;;0.63;0.50;;;;;;;15.91;78.27;92783.63;5074423;28;20199;-56
2022/12/11 08:45:03;;;;;;;0.77;0.40;;;;;;;15.92;77.55;92795.44;5093320;28;20212;-57
2022/12/11 08:47:28;;;;;;;0.38;0.38;;;;;;;15.89;78.36;92761.75;5092685;28;20191;-57
2022/12/11 08:49:54;;;;;;;0.90;0.50;;;;;;;15.84;78.56;92741.09;5092395;28;20224;-58
2022/12/11 08:52:19;;;;;;;1.23;0.80;;;;;;;15.84;80.29;92703.44;5092624;28;20241;-56
2022/12/11 08:54:45;;;;;;;1.25;0.50;;;;;;;15.85;77.89;92778.53;5095967;22;20228;-57
2022/12/11 08:57:10;;;;;;;1.00;0.60;;;;;;;15.93;77.15;92780.84;5072596;28;20611;-58
2022/12/11 08:59:36;;;;;;;2.15;0.63;;;;;;;15.92;78.39;92771.59;5072186;28;20211;-57
2022/12/11 09:02:01;;;;;;;2.28;0.70;;;;;;;15.94;79.88;92736.28;5072306;28;20216;-58
2022/12/11 09:04:28;;;;;;;1.35;0.65;;;;;;;15.88;81.18;92707.16;5072170;28;20238;-59
2022/12/11 09:06:56;;;;;;;1.50;0.90;;;;;;;15.86;80.02;92744.22;5083252;22;20219;-58
2022/12/11 09:09:22;;;;;;;2.60;0.90;;;;;;;15.88;80.58;92714.84;5092446;28;20216;-57
2022/12/11 09:11:50;;;;;;;1.30;0.95;;;;;;;15.88;79.68;92724.31;5092282;28;20591;-58
2022/12/11 09:14:15;;;;;;;1.77;1.10;;;;;;;15.93;80.33;92717.59;5092325;28;20311;-56
2022/12/11 09:16:41;;;;;;;0.90;0.70;;;;;;;15.90;80.13;92720.56;5092216;28;20212;-56
2022/12/11 09:19:08;;;;;;;3.25;0.85;;;;;;;15.99;78.81;92733.91;5091901;28;20216;-59
2022/12/11 09:21:33;;;;;;;1.42;0.80;;;;;;;16.01;79.26;92721.66;5091932;28;20188;-56
2022/12/11 09:24:00;;;;;;;3.08;0.90;;;;;;;16.05;78.92;92740.75;5091701;28;20199;-56
2022/12/11 09:26:27;;;;;;;1.73;0.80;;;;;;;16.06;78.88;92739.75;5091853;28;20275;-56
2022/12/11 09:28:53;;;;;;;1.45;1.02;;;;;;;16.04;78.67;92739.16;5073443;28;20192;-57
2022/12/11 09:31:27;;;;;;;0.82;0.77;;;;;;;16.05;78.66;92745.88;5092020;28;20241;-56
2022/12/11 09:33:55;;;;;;;2.38;1.05;;;;;;;16.05;78.21;92751.00;5074533;28;20192;-59
2022/12/11 09:36:22;;;;;;;0.70;0.70;;;;;;;16.07;78.40;92754.13;5091952;28;20199;-55
2022/12/11 09:38:47;;;;;;;1.40;0.70;;;;;;;16.05;78.26;92747.66;5091823;28;20188;-58
2022/12/11 09:41:28;;;;;;;0.93;0.60;;;;;;;15.95;78.05;92743.78;5074290;28;20325;-56
2022/12/11 09:44:30;;;;;;;1.20;0.95;;;;;;;15.99;77.91;92749.28;5092031;28;20396;-57
2022/12/11 09:46:57;;;;;;;2.08;0.77;;;;;;;15.98;78.46;92741.81;5091779;28;20192;-57
2022/12/11 09:49:30;;;;;;;1.27;0.60;;;;;;;15.98;77.04;92774.09;5092124;28;20299;-56
2022/12/11 09:52:19;;;;;;;0.85;0.60;;;;;;;15.95;77.03;92781.44;5073434;28;20188;-57
2022/12/11 09:55:01;;;;;;;0.50;0.50;;;;;;;15.68;79.87;92706.53;5078145;28;20696;-56
2022/12/11 09:57:43;;;;;;;1.80;0.70;;;;;;;15.68;79.84;92718.53;5091348;28;20192;-58
2022/12/11 10:00:31;;;;;;;1.23;0.63;;;;;;;15.64;81.32;92678.97;5091400;28;20736;-55
2022/12/11 10:02:59;;;;;;;1.15;0.80;;;;;;;15.72;82.13;92668.47;5091248;28;20192;-58
2022/12/11 10:05:46;;;;;;;2.65;0.80;;;;;;;15.69;83.43;92645.84;5091670;28;20685;-59
2022/12/11 10:08:28;;;;;;;1.42;0.90;;;;;;;15.65;83.14;92645.50;5091669;28;20229;-58
2022/12/11 10:11:03;;;;;;;1.77;0.80;;;;;;;15.62;80.56;92711.69;5091553;28;20291;-57
2022/12/11 10:14:06;;;;;;;1.08;0.80;;;;;;;15.78;80.15;92696.59;5090927;28;20658;-56
2022/12/11 10:16:47;;;;;;;1.60;1.00;;;;;;;15.76;81.45;92675.53;5091173;28;20279;-59
2022/12/11 10:19:23;;;;;;;1.00;0.80;;;;;;;15.61;82.11;92664.03;5090897;28;20669;-57
2022/12/11 10:21:51;;;;;;;0.73;0.70;;;;;;;15.50;84.99;92605.78;5091167;28;20194;-56
2022/12/11 10:24:24;;;;;;;1.27;0.90;;;;;;;15.31;89.19;92517.13;5090485;28;20302;-55
2022/12/11 10:26:55;;;;;;;1.92;1.05;;;;;;;15.27;89.54;92550.00;5091096;28;20341;-56
2022/12/11 10:29:20;;;;;;;1.85;0.77;;;;;;;15.17;92.57;92500.31;5090950;28;20703;-56
2022/12/11 10:31:56;;;;;;;1.48;1.20;;;;;;;15.02;93.41;92498.84;5091348;28;20285;-58
2022/12/11 10:34:33;;;;;;;1.92;1.02;;;;;;;15.00;96.92;92467.59;5072670;28;20222;-59
2022/12/11 10:37:00;;;;;;;1.65;1.55;;;;;;;14.93;95.07;92497.53;5092327;28;20267;-58
2022/12/11 10:39:25;;;;;;;2.97;1.20;;;;;;;15.02;93.20;92523.66;5093289;28;20305;-56
2022/12/11 10:41:53;;;;;;;1.10;1.10;;;;;;;15.08;89.14;92574.78;5093393;28;20188;-55
2022/12/11 10:44:28;;;;;;;2.22;1.55;;;;;;;15.23;89.54;92578.81;5090774;28;20239;-57
2022/12/11 10:47:10;;;;;;;1.20;1.10;;;;;;;15.30;89.85;92551.38;5090922;28;20195;-57
2022/12/11 10:49:38;;;;;;;4.50;1.38;;;;;;;15.32;90.31;92544.28;5090910;28;20231;-56
2022/12/11 10:52:18;;;;;;;2.53;1.30;;;;;;;15.36;89.96;92551.34;5090740;28;20188;-56
2022/12/11 10:54:47;;;;;;;3.03;1.40;;;;;;;15.54;84.87;92622.31;5072533;28;20215;-56
2022/12/11 10:57:14;;;;;;;4.25;1.15;;;;;;;15.66;85.46;92615.50;5090633;28;20200;-57
2022/12/11 10:59:48;;;;;;;1.50;1.40;;;;;;;15.66;86.69;92589.91;5090816;28;20212;-62
2022/12/11 11:02:26;;;;;;;1.58;1.23;;;;;;;15.77;85.55;92613.06;5090844;28;20607;-56
2022/12/11 11:04:53;;;;;;;2.78;1.48;;;;;;;15.83;83.80;92639.63;5072323;28;20302;-57
2022/12/11 11:07:37;;;;;;;3.35;1.48;;;;;;;15.88;82.79;92655.91;5090591;28;20268;-59
2022/12/11 11:10:12;;;;;;;4.80;1.50;;;;;;;15.89;86.22;92578.06;5090765;28;20673;-58
2022/12/11 11:12:40;;;;;;;2.25;1.42;;;;;;;15.90;84.51;92609.56;5090137;28;20198;-57
2022/12/11 11:15:09;;;;;;;1.70;1.20;;;;;;;15.90;81.67;92669.31;5090906;28;20208;-57
2022/12/11 11:17:52;;;;;;;0.90;0.90;;;;;;;15.93;79.58;92703.97;5090190;28;20199;-57
2022/12/11 11:20:21;;;;;;;1.48;1.38;;;;;;;15.96;80.29;92688.16;5090352;28;20275;-57
2022/12/11 11:22:49;;;;;;;2.15;1.15;;;;;;;15.89;79.94;92688.25;5072125;28;20203;-56
2022/12/11 11:25:33;;;;;;;1.13;1.08;;;;;;;15.81;80.33;92669.78;5072093;28;20216;-58
2022/12/11 11:28:03;;;;;;;2.83;1.13;;;;;;;15.70;81.87;92640.50;5090364;28;20202;-58
2022/12/11 11:30:39;;;;;;;1.25;0.93;;;;;;;15.76;82.84;92637.09;5090293;28;20614;-60
2022/12/11 11:33:14;;;;;;;1.73;1.13;;;;;;;15.67;86.46;92565.88;5090372;28;20289;-57
2022/12/11 11:35:51;;;;;;;2.08;1.67;;;;;;;15.52;88.83;92522.66;5091902;28;20215;-58
2022/12/11 11:38:19;;;;;;;2.97;1.48;;;;;;;15.40;90.07;92492.81;5093718;28;20160;-56
2022/12/11 11:41:23;;;;;;;4.15;1.80;;;;;;;15.43;89.92;92505.97;5093370;28;20747;-57
2022/12/11 11:44:01;;;;;;;2.25;1.27;;;;;;;15.47;88.92;92539.66;4991849;28;20202;-57
2022/12/11 11:46:47;;;;;;;1.80;1.27;;;;;;;15.50;89.36;92529.75;5081058;28;20200;-58